Time;durP1;ratioP1;P1;durP2;ratioP2;P2;SDS_P1;SDS_P2;PMS_P1;PMS_P2;Temp;Humidity;BMP_temperature;BMP_pressure;BME280_temperature;BME280_humidity;BME280_pressure;Samples;Min_cycle;Max_cycle;Signal;HPM_P1;HPM_P2
2023/05/19 00:01:36;;;;;;;;;;;;;;;10.50;100.00;96291.69;5082376;28;20298;-73
2023/05/19 00:04:04;;;;;;;;;;;;;;;10.50;100.00;96296.84;5080046;28;20021;-74
2023/05/19 00:06:31;;;;;;;;;;;;;;;10.21;100.00;96293.19;5088173;28;20313;-74
2023/05/19 00:08:58;;;;;;;;;;;;;;;10.18;100.00;96301.13;5080361;28;20019;-73
2023/05/19 00:11:26;;;;;;;;;;;;;;;10.08;100.00;96293.00;5085660;28;19932;-74
2023/05/19 00:13:53;;;;;;;;;;;;;;;10.13;100.00;96290.19;5084380;28;20011;-74
2023/05/19 00:16:20;;;;;;;;;;;;;;;10.16;100.00;96292.63;5083986;28;19924;-73
2023/05/19 00:18:48;;;;;;;;;;;;;;;10.10;100.00;96290.34;5080094;28;19931;-74
2023/05/19 00:21:14;;;;;;;;;;;;;;;9.96;100.00;96291.06;5083375;28;20003;-73
2023/05/19 00:23:40;;;;;;;;;;;;;;;10.04;100.00;96288.06;5075845;28;19931;-73
2023/05/19 00:26:06;;;;;;;;;;;;;;;9.95;100.00;96286.81;5083487;28;19932;-74
2023/05/19 00:28:33;;;;;;;;;;;;;;;9.74;100.00;96285.31;5082919;28;19935;-74
2023/05/19 00:30:59;;;;;;;;;;;;;;;9.84;100.00;96283.94;5082158;28;20421;-74
2023/05/19 00:33:26;;;;;;;;;;;;;;;9.99;100.00;96285.72;5082043;28;19932;-73
2023/05/19 00:35:53;;;;;;;;;;;;;;;9.91;100.00;96280.94;5083713;28;19924;-73
2023/05/19 00:38:20;;;;;;;;;;;;;;;9.69;100.00;96277.78;5076926;28;19928;-74
2023/05/19 00:40:46;;;;;;;;;;;;;;;9.68;100.00;96283.91;5082788;28;20333;-74
2023/05/19 00:43:12;;;;;;;;;;;;;;;9.52;100.00;96273.47;5085412;28;19935;-73
2023/05/19 00:45:39;;;;;;;;;;;;;;;9.56;100.00;96277.56;5078014;28;19928;-73
2023/05/19 00:48:05;;;;;;;;;;;;;;;9.57;100.00;96278.44;5084484;28;20294;-73
2023/05/19 00:50:32;;;;;;;;;;;;;;;9.67;100.00;96266.69;5078967;28;19928;-73
2023/05/19 00:52:59;;;;;;;;;;;;;;;9.76;100.00;96266.22;5089307;28;19981;-72
2023/05/19 00:55:27;;;;;;;;;;;;;;;9.80;100.00;96266.91;5081796;28;19925;-74
2023/05/19 00:57:54;;;;;;;;;;;;;;;9.75;100.00;96268.88;5078771;28;20272;-74
2023/05/19 01:00:20;;;;;;;;;;;;;;;9.69;100.00;96267.44;5081474;28;20291;-72
2023/05/19 01:02:47;;;;;;;;;;;;;;;9.70;100.00;96267.34;5082291;28;20336;-73
2023/05/19 01:05:13;;;;;;;;;;;;;;;9.77;100.00;96273.06;5083351;28;19932;-74
2023/05/19 01:07:40;;;;;;;;;;;;;;;9.78;100.00;96271.31;5081451;28;19928;-74
2023/05/19 01:10:09;;;;;;;;;;;;;;;9.82;100.00;96272.81;5080616;28;19935;-73
2023/05/19 01:12:35;;;;;;;;;;;;;;;9.78;100.00;96266.13;5083111;28;19977;-74
2023/05/19 01:15:02;;;;;;;;;;;;;;;9.85;100.00;96268.31;5085103;28;19924;-74
2023/05/19 01:17:32;;;;;;;;;;;;;;;9.88;100.00;96273.34;5083882;28;19936;-74
2023/05/19 01:20:03;;;;;;;;;;;;;;;9.93;100.00;96276.50;5076442;28;19928;-74
2023/05/19 01:22:41;;;;;;;;;;;;;;;9.88;100.00;96273.34;5084365;28;19932;-74
2023/05/19 01:25:27;;;;;;;;;;;;;;;9.97;100.00;96278.94;5076029;28;19928;-73
2023/05/19 01:28:12;;;;;;;;;;;;;;;9.92;100.00;96280.03;5080566;28;19925;-74
2023/05/19 01:30:41;;;;;;;;;;;;;;;10.00;100.00;96273.63;5078139;28;19924;-74
2023/05/19 01:33:09;;;;;;;;;;;;;;;9.71;100.00;96273.38;5087266;28;19936;-73
2023/05/19 01:35:36;;;;;;;;;;;;;;;9.78;100.00;96272.13;5082766;28;19932;-74
2023/05/19 01:38:03;;;;;;;;;;;;;;;9.79;100.00;96271.25;5086297;28;20336;-74
2023/05/19 01:40:30;;;;;;;;;;;;;;;9.75;100.00;96271.47;5075486;28;19936;-74
2023/05/19 01:42:57;;;;;;;;;;;;;;;9.70;100.00;96271.69;5084766;28;19928;-74
2023/05/19 01:45:24;;;;;;;;;;;;;;;9.80;100.00;96272.06;5077820;28;19928;-73
2023/05/19 01:47:52;;;;;;;;;;;;;;;9.65;100.00;96268.53;5071276;28;19935;-74
2023/05/19 01:50:19;;;;;;;;;;;;;;;9.65;100.00;96268.53;5078876;28;19925;-74
2023/05/19 01:52:45;;;;;;;;;;;;;;;9.61;100.00;96267.00;5082949;28;20007;-74
2023/05/19 01:55:12;;;;;;;;;;;;;;;9.66;100.00;96271.03;5084694;28;19973;-74
2023/05/19 01:57:42;;;;;;;;;;;;;;;9.52;100.00;96276.06;5087144;28;19951;-74
2023/05/19 02:00:11;;;;;;;;;;;;;;;9.55;100.00;96275.06;5082552;28;19924;-74
2023/05/19 02:02:43;;;;;;;;;;;;;;;9.44;100.00;96270.44;5078837;28;19950;-74
2023/05/19 02:05:16;;;;;;;;;;;;;;;9.34;100.00;96274.38;5078189;28;19939;-73
2023/05/19 02:07:44;;;;;;;;;;;;;;;9.39;100.00;96273.25;5076058;28;19952;-73
2023/05/19 02:10:11;;;;;;;;;;;;;;;9.41;100.00;96270.59;5078476;28;20025;-72
2023/05/19 02:12:39;;;;;;;;;;;;;;;9.38;100.00;96269.00;5071204;28;19973;-74
2023/05/19 02:15:06;;;;;;;;;;;;;;;9.19;100.00;96270.81;5082760;28;19928;-74
2023/05/19 02:17:35;;;;;;;;;;;;;;;8.88;100.00;96274.06;5083256;28;19935;-74
2023/05/19 02:20:03;;;;;;;;;;;;;;;8.72;100.00;96279.97;5079703;28;19974;-74
2023/05/19 02:22:30;;;;;;;;;;;;;;;8.63;100.00;96284.72;5085292;28;19924;-73
2023/05/19 02:24:57;;;;;;;;;;;;;;;8.66;100.00;96276.81;5086620;28;19928;-73
2023/05/19 02:27:23;;;;;;;;;;;;;;;8.60;100.00;96280.56;5083039;28;19929;-73
2023/05/19 02:29:49;;;;;;;;;;;;;;;8.77;100.00;96272.00;5082459;28;19924;-74
2023/05/19 02:32:16;;;;;;;;;;;;;;;8.95;100.00;96276.28;5079513;28;19924;-73
2023/05/19 02:34:44;;;;;;;;;;;;;;;9.02;100.00;96273.41;5087747;28;19928;-74
2023/05/19 02:37:11;;;;;;;;;;;;;;;8.85;100.00;96271.63;5085224;28;19932;-74
2023/05/19 02:39:38;;;;;;;;;;;;;;;8.71;100.00;96270.56;5084972;28;19955;-73
2023/05/19 02:42:05;;;;;;;;;;;;;;;8.70;100.00;96268.03;5081009;28;19948;-74
2023/05/19 02:44:31;;;;;;;;;;;;;;;8.84;100.00;96264.78;5085684;28;19997;-74
2023/05/19 02:46:57;;;;;;;;;;;;;;;8.89;100.00;96261.06;5084746;28;19954;-73
2023/05/19 02:49:24;;;;;;;;;;;;;;;9.20;100.00;96263.00;5081538;28;20271;-74
2023/05/19 02:51:50;;;;;;;;;;;;;;;9.00;100.00;96263.13;5085239;28;19931;-74
2023/05/19 02:54:16;;;;;;;;;;;;;;;9.03;100.00;96259.56;5083856;28;19931;-74
2023/05/19 02:56:44;;;;;;;;;;;;;;;8.82;100.00;96254.53;5085619;28;19939;-73
2023/05/19 02:59:10;;;;;;;;;;;;;;;8.65;100.00;96254.50;5080994;28;19925;-74
2023/05/19 03:01:39;;;;;;;;;;;;;;;8.89;100.00;96257.66;5088808;28;19924;-74
2023/05/19 03:04:05;;;;;;;;;;;;;;;8.83;100.00;96253.63;5068521;28;19967;-74
2023/05/19 03:06:31;;;;;;;;;;;;;;;8.73;100.00;96252.38;5092320;28;19989;-74
2023/05/19 03:08:58;;;;;;;;;;;;;;;8.56;100.00;96248.00;5080924;28;19955;-74
2023/05/19 03:11:25;;;;;;;;;;;;;;;8.53;100.00;96255.06;5086139;28;19977;-72
2023/05/19 03:13:52;;;;;;;;;;;;;;;8.58;100.00;96253.94;5083334;28;20349;-74
2023/05/19 03:16:19;;;;;;;;;;;;;;;8.45;100.00;96253.69;5087764;28;19924;-74
2023/05/19 03:18:45;;;;;;;;;;;;;;;8.64;100.00;96253.69;5082196;28;19925;-73
2023/05/19 03:21:12;;;;;;;;;;;;;;;8.71;100.00;96251.63;5084343;28;19924;-74
2023/05/19 03:23:38;;;;;;;;;;;;;;;8.72;100.00;96246.41;5085568;28;19981;-73
2023/05/19 03:26:05;;;;;;;;;;;;;;;8.81;100.00;96255.44;5080231;28;19933;-74
2023/05/19 03:28:31;;;;;;;;;;;;;;;8.87;100.00;96254.31;5085260;28;19977;-73
2023/05/19 03:30:58;;;;;;;;;;;;;;;8.79;100.00;96248.66;5082913;28;19927;-74
2023/05/19 03:33:26;;;;;;;;;;;;;;;8.88;100.00;96255.97;5087291;28;20395;-73
2023/05/19 03:35:53;;;;;;;;;;;;;;;8.81;100.00;96254.59;5082421;28;20031;-72
2023/05/19 03:38:19;;;;;;;;;;;;;;;8.64;100.00;96257.97;5082979;28;19924;-73
2023/05/19 03:40:45;;;;;;;;;;;;;;;8.72;100.00;96261.06;5079810;28;19960;-73
2023/05/19 03:43:11;;;;;;;;;;;;;;;8.57;100.00;96259.19;5086282;28;19946;-73
2023/05/19 03:45:38;;;;;;;;;;;;;;;8.66;100.00;96267.34;5076976;28;19928;-74
2023/05/19 03:48:06;;;;;;;;;;;;;;;8.48;100.00;96258.69;5082893;28;20400;-73
2023/05/19 03:50:32;;;;;;;;;;;;;;;8.44;100.00;96266.66;5082619;28;19970;-73
2023/05/19 03:52:59;;;;;;;;;;;;;;;8.28;100.00;96263.09;5077577;28;20303;-74
2023/05/19 03:55:25;;;;;;;;;;;;;;;8.14;100.00;96258.56;5087713;28;19969;-73
2023/05/19 03:57:52;;;;;;;;;;;;;;;8.31;100.00;96260.38;5080800;28;19928;-73
2023/05/19 04:00:19;;;;;;;;;;;;;;;8.39;100.00;96266.88;5080052;28;19925;-73
2023/05/19 04:02:45;;;;;;;;;;;;;;;8.22;100.00;96267.59;5071012;28;20347;-74
2023/05/19 04:05:12;;;;;;;;;;;;;;;8.19;100.00;96270.34;5082646;28;19928;-74
2023/05/19 04:07:39;;;;;;;;;;;;;;;8.21;100.00;96267.69;5077423;28;19979;-73
2023/05/19 04:10:06;;;;;;;;;;;;;;;8.03;100.00;96269.34;5082740;28;19931;-70
2023/05/19 04:12:32;;;;;;;;;;;;;;;7.84;100.00;96271.09;5081007;28;19924;-72
2023/05/19 04:14:58;;;;;;;;;;;;;;;7.79;100.00;96262.69;5082048;28;19966;-72
2023/05/19 04:17:25;;;;;;;;;;;;;;;7.83;100.00;96265.09;5083870;28;19931;-72
2023/05/19 04:19:52;;;;;;;;;;;;;;;7.91;100.00;96269.91;5080434;28;20023;-72
2023/05/19 04:22:19;;;;;;;;;;;;;;;8.08;100.00;96269.13;5084440;28;19932;-71
2023/05/19 04:24:46;;;;;;;;;;;;;;;8.07;100.00;96270.06;5071883;28;19932;-73
2023/05/19 04:27:12;;;;;;;;;;;;;;;8.07;100.00;96259.72;5080268;28;20298;-73
2023/05/19 04:29:39;;;;;;;;;;;;;;;8.33;100.00;96268.88;5083562;28;19928;-73
2023/05/19 04:32:06;;;;;;;;;;;;;;;8.53;100.00;96260.22;5086705;28;19963;-73
2023/05/19 04:34:33;;;;;;;;;;;;;;;8.61;100.00;96263.31;5085224;28;20401;-73
2023/05/19 04:37:00;;;;;;;;;;;;;;;8.54;100.00;96267.09;5079501;28;19931;-73
2023/05/19 04:39:27;;;;;;;;;;;;;;;8.62;100.00;96260.63;5081916;28;19924;-73
2023/05/19 04:41:53;;;;;;;;;;;;;;;8.86;100.00;96263.81;5087235;28;19928;-73
2023/05/19 04:44:20;;;;;;;;;;;;;;;8.88;100.00;96256.81;5083725;28;20391;-73
2023/05/19 04:46:46;;;;;;;;;;;;;;;9.01;100.00;96264.81;5080890;28;20336;-73
2023/05/19 04:49:12;;;;;;;;;;;;;;;8.94;100.00;96272.03;5084687;28;19928;-73
2023/05/19 04:51:40;;;;;;;;;;;;;;;8.92;100.00;96273.00;5086249;28;20386;-72
2023/05/19 04:54:06;;;;;;;;;;;;;;;8.94;100.00;96273.78;5082290;28;19924;-73
2023/05/19 04:56:34;;;;;;;;;;;;;;;9.01;100.00;96267.41;5075205;28;19982;-73
2023/05/19 04:59:00;;;;;;;;;;;;;;;9.25;100.00;96278.28;5080291;28;19928;-73
2023/05/19 05:01:26;;;;;;;;;;;;;;;9.21;100.00;96274.16;5087001;28;19928;-73
2023/05/19 05:03:53;;;;;;;;;;;;;;;9.10;100.00;96273.88;5074925;28;20455;-73
2023/05/19 05:06:20;;;;;;;;;;;;;;;9.09;100.00;96273.03;5073725;28;19925;-73
2023/05/19 05:08:46;;;;;;;;;;;;;;;9.11;100.00;96272.94;5072845;28;19931;-73
2023/05/19 05:11:13;;;;;;;;;;;;;;;9.09;100.00;96278.19;5077013;28;19989;-73
2023/05/19 05:13:41;;;;;;;;;;;;;;;9.25;100.00;96273.09;5081294;28;19924;-74
2023/05/19 05:16:08;;;;;;;;;;;;;;;9.33;100.00;96262.38;5081179;28;19943;-73
2023/05/19 05:18:35;;;;;;;;;;;;;;;9.40;100.00;96264.59;5074936;28;19925;-73
2023/05/19 05:21:01;;;;;;;;;;;;;;;9.56;100.00;96268.97;5071493;28;19935;-74
2023/05/19 05:23:28;;;;;;;;;;;;;;;9.85;100.00;96268.31;5082823;28;19935;-72
2023/05/19 05:25:55;;;;;;;;;;;;;;;9.65;100.00;96271.94;5089125;28;20010;-73
2023/05/19 05:28:21;;;;;;;;;;;;;;;10.03;100.00;96276.88;5080655;28;20423;-73
2023/05/19 05:30:49;;;;;;;;;;;;;;;10.08;100.00;96266.28;5086594;28;19932;-68
2023/05/19 05:33:16;;;;;;;;;;;;;;;10.29;100.00;96272.09;5082475;28;19928;-74
2023/05/19 05:35:42;;;;;;;;;;;;;;;10.22;100.00;96270.72;5073188;28;20368;-74
2023/05/19 05:38:10;;;;;;;;;;;;;;;10.20;100.00;96268.25;5076562;28;19932;-73
2023/05/19 05:40:36;;;;;;;;;;;;;;;10.29;100.00;96266.94;5083534;28;19924;-74
2023/05/19 05:43:02;;;;;;;;;;;;;;;10.41;100.00;96274.03;5080617;28;19929;-73
2023/05/19 05:45:28;;;;;;;;;;;;;;;10.58;100.00;96275.72;5069040;28;19924;-73
2023/05/19 05:47:56;;;;;;;;;;;;;;;10.64;100.00;96275.34;5071229;28;20271;-73
2023/05/19 05:50:23;;;;;;;;;;;;;;;10.78;100.00;96275.44;5081970;28;19927;-72
2023/05/19 05:52:51;;;;;;;;;;;;;;;10.53;100.00;96275.13;5089177;28;19946;-71
2023/05/19 05:55:18;;;;;;;;;;;;;;;10.53;100.00;96275.13;5080629;28;19928;-73
2023/05/19 05:57:44;;;;;;;;;;;;;;;10.81;100.00;96277.88;5074685;28;19928;-72
2023/05/19 06:00:14;;;;;;;;;;;;;;;10.90;100.00;96279.97;5084569;28;19932;-72
2023/05/19 06:02:40;;;;;;;;;;;;;;;11.02;100.00;96269.81;5082017;28;19963;-73
2023/05/19 06:05:11;;;;;;;;;;;;;;;10.93;100.00;96276.34;5081453;28;20300;-73
2023/05/19 06:07:37;;;;;;;;;;;;;;;11.27;100.00;96277.00;5087055;28;19935;-73
2023/05/19 06:10:04;;;;;;;;;;;;;;;11.23;100.00;96273.75;5085945;28;20382;-72
2023/05/19 06:12:30;;;;;;;;;;;;;;;11.46;100.00;96276.78;5086858;28;19939;-72
2023/05/19 06:14:57;;;;;;;;;;;;;;;11.52;100.00;96272.09;5082636;28;19997;-73
2023/05/19 06:17:23;;;;;;;;;;;;;;;11.54;100.00;96279.78;5079264;28;19982;-72
2023/05/19 06:19:49;;;;;;;;;;;;;;;11.52;100.00;96272.09;5086012;28;19928;-72
2023/05/19 06:22:17;;;;;;;;;;;;;;;11.43;100.00;96272.63;5088072;28;19963;-72
2023/05/19 06:24:43;;;;;;;;;;;;;;;11.18;100.00;96274.97;5086388;28;20015;-72
2023/05/19 06:27:09;;;;;;;;;;;;;;;11.37;100.00;96273.81;5084807;28;19924;-73
2023/05/19 06:29:36;;;;;;;;;;;;;;;11.32;100.00;96273.25;5082365;28;19924;-73
2023/05/19 06:32:02;;;;;;;;;;;;;;;11.46;100.00;96274.19;5086077;28;19936;-73
2023/05/19 06:34:28;;;;;;;;;;;;;;;11.42;100.00;96275.28;5086078;28;19924;-72
2023/05/19 06:36:55;;;;;;;;;;;;;;;11.70;100.00;96271.94;5079267;28;19924;-72
2023/05/19 06:39:23;;;;;;;;;;;;;;;11.96;100.00;96268.66;5078134;28;19924;-72
2023/05/19 06:41:49;;;;;;;;;;;;;;;11.75;100.00;96265.53;5085804;28;20402;-73
2023/05/19 06:44:16;;;;;;;;;;;;;;;11.89;100.00;96274.28;5086656;28;20341;-73
2023/05/19 06:46:43;;;;;;;;;;;;;;;11.93;100.00;96268.81;5073342;28;19928;-73
2023/05/19 06:49:10;;;;;;;;;;;;;;;12.40;100.00;96272.06;5086295;28;19924;-73
2023/05/19 06:51:36;;;;;;;;;;;;;;;12.46;100.00;96263.88;5089469;28;19928;-72
2023/05/19 06:54:03;;;;;;;;;;;;;;;12.43;100.00;96269.28;5084904;28;19928;-72
2023/05/19 06:56:30;;;;;;;;;;;;;;;12.70;100.00;96280.53;5087341;28;19924;-73
2023/05/19 06:58:56;;;;;;;;;;;;;;;12.71;100.00;96279.59;5087050;28;20352;-73
2023/05/19 07:01:25;;;;;;;;;;;;;;;12.42;100.00;96275.38;5087100;28;19997;-73
2023/05/19 07:03:51;;;;;;;;;;;;;;;12.61;100.00;96281.13;5083246;28;20386;-73
2023/05/19 07:06:17;;;;;;;;;;;;;;;12.30;96.76;96275.19;5078160;28;19989;-72
2023/05/19 07:08:43;;;;;;;;;;;;;;;12.57;95.50;96267.47;5085366;28;19924;-73
2023/05/19 07:11:11;;;;;;;;;;;;;;;12.68;95.49;96273.75;5072153;28;19924;-73
2023/05/19 07:13:38;;;;;;;;;;;;;;;12.90;100.00;96270.63;5084201;28;19971;-72
2023/05/19 07:16:05;;;;;;;;;;;;;;;13.01;97.91;96268.16;5081591;28;19932;-73
2023/05/19 07:18:31;;;;;;;;;;;;;;;13.26;97.14;96273.47;5085416;28;19936;-73
2023/05/19 07:20:58;;;;;;;;;;;;;;;13.53;97.16;96275.19;5081346;28;20008;-73
2023/05/19 07:23:24;;;;;;;;;;;;;;;13.65;92.44;96260.56;5082421;28;19967;-73
2023/05/19 07:25:53;;;;;;;;;;;;;;;13.66;93.27;96268.25;5085548;28;19928;-73
2023/05/19 07:28:20;;;;;;;;;;;;;;;13.55;89.37;96270.72;5087819;28;19924;-73
2023/05/19 07:30:48;;;;;;;;;;;;;;;13.55;90.21;96270.72;5076640;28;19970;-72
2023/05/19 07:33:14;;;;;;;;;;;;;;;13.44;98.04;96266.22;5081965;28;20383;-72
2023/05/19 07:35:41;;;;;;;;;;;;;;;13.41;91.60;96265.59;5079551;28;19931;-71
2023/05/19 07:38:07;;;;;;;;;;;;;;;13.55;99.76;96270.72;5085153;28;19934;-73
2023/05/19 07:40:34;;;;;;;;;;;;;;;13.69;94.67;96267.22;5087810;28;19923;-73
2023/05/19 07:43:00;;;;;;;;;;;;;;;13.52;88.78;96268.31;5077769;28;19924;-73
2023/05/19 07:45:26;;;;;;;;;;;;;;;13.46;95.71;96271.31;5081514;28;19932;-73
2023/05/19 07:47:54;;;;;;;;;;;;;;;13.00;93.75;96266.50;5077936;28;19932;-72
2023/05/19 07:50:21;;;;;;;;;;;;;;;12.99;95.29;96260.47;5080834;28;19924;-72
2023/05/19 07:52:47;;;;;;;;;;;;;;;13.03;99.73;96264.53;5086798;28;19928;-72
2023/05/19 07:55:13;;;;;;;;;;;;;;;13.02;96.96;96259.44;5083561;28;19928;-72
2023/05/19 07:57:40;;;;;;;;;;;;;;;13.06;96.18;96260.91;5082903;28;19924;-72
2023/05/19 08:00:08;;;;;;;;;;;;;;;13.06;94.06;96251.34;5082920;28;19928;-72
2023/05/19 08:02:35;;;;;;;;;;;;;;;12.89;92.80;96250.75;5079258;28;20454;-73
2023/05/19 08:05:02;;;;;;;;;;;;;;;12.98;94.66;96250.19;5081618;28;19928;-72
2023/05/19 08:07:29;;;;;;;;;;;;;;;13.04;92.07;96257.56;5079685;28;20442;-72
2023/05/19 08:09:56;;;;;;;;;;;;;;;13.02;92.98;96251.66;5080795;28;19925;-72
2023/05/19 08:12:22;;;;;;;;;;;;;;;13.12;90.59;96252.69;5081549;28;19934;-73
2023/05/19 08:14:48;;;;;;;;;;;;;;;13.07;97.55;96241.78;5081799;28;19928;-72
2023/05/19 08:17:15;;;;;;;;;;;;;;;13.13;94.24;96251.78;5083324;28;19983;-72
2023/05/19 08:19:41;;;;;;;;;;;;;;;13.20;99.27;96244.41;5090000;28;19924;-72
2023/05/19 08:22:08;;;;;;;;;;;;;;;13.16;94.26;96245.53;5078324;28;19932;-73
2023/05/19 08:24:35;;;;;;;;;;;;;;;12.99;94.72;96244.03;5084455;28;19925;-72
2023/05/19 08:27:03;;;;;;;;;;;;;;;12.91;100.00;96243.72;5082949;28;19928;-72
2023/05/19 08:29:30;;;;;;;;;;;;;;;12.95;96.66;96239.97;5088715;28;20414;-73
2023/05/19 08:31:57;;;;;;;;;;;;;;;12.98;94.60;96232.81;5080761;28;19975;-72
2023/05/19 08:34:23;;;;;;;;;;;;;;;12.78;93.15;96235.84;5080770;28;20103;-73
2023/05/19 08:36:49;;;;;;;;;;;;;;;12.78;95.47;96235.84;5076184;28;19924;-73
2023/05/19 08:39:22;;;;;;;;;;;;;;;12.71;96.69;96235.41;5081640;28;19967;-73
2023/05/19 08:41:49;;;;;;;;;;;;;;;12.56;96.06;96237.22;5083472;28;20007;-73
2023/05/19 08:44:15;;;;;;;;;;;;;;;12.45;97.43;96233.63;5084167;28;19928;-73
2023/05/19 08:46:41;;;;;;;;;;;;;;;12.82;96.21;96232.13;5082298;28;19928;-72
2023/05/19 08:49:11;;;;;;;;;;;;;;;12.68;97.55;96238.22;5081599;28;19935;-72
2023/05/19 08:51:41;;;;;;;;;;;;;;;12.74;96.29;96234.38;5080303;28;19935;-72
2023/05/19 08:54:12;;;;;;;;;;;;;;;12.70;100.00;96233.75;5078739;28;20344;-72
2023/05/19 08:56:40;;;;;;;;;;;;;;;12.88;100.00;96239.53;5076007;28;20015;-72
2023/05/19 08:59:07;;;;;;;;;;;;;;;13.03;100.00;96235.94;5082717;28;19924;-72
2023/05/19 09:01:34;;;;;;;;;;;;;;;12.92;99.18;96237.56;5077174;28;19932;-71
2023/05/19 09:04:00;;;;;;;;;;;;;;;12.75;96.37;96226.47;5080029;28;19924;-72
2023/05/19 09:06:27;;;;;;;;;;;;;;;12.94;98.33;96231.34;5084313;28;19924;-72
2023/05/19 09:08:53;;;;;;;;;;;;;;;12.95;94.31;96233.00;5082692;28;19932;-72
2023/05/19 09:11:21;;;;;;;;;;;;;;;12.80;95.05;96231.41;5083123;28;19932;-71
2023/05/19 09:13:49;;;;;;;;;;;;;;;12.67;95.17;96231.34;5084102;28;19935;-71
2023/05/19 09:16:16;;;;;;;;;;;;;;;12.86;99.27;96232.75;5086856;28;19924;-71
2023/05/19 09:18:53;;;;;;;;;;;;;;;12.99;94.58;96236.25;5086554;28;19935;-73
2023/05/19 09:21:19;;;;;;;;;;;;;;;12.74;95.07;96235.22;5086564;28;19981;-74
2023/05/19 09:23:47;;;;;;;;;;;;;;;12.94;95.15;96226.16;5084210;28;20420;-74
2023/05/19 09:26:14;;;;;;;;;;;;;;;13.12;96.48;96228.47;5085186;28;20390;-71
2023/05/19 09:28:41;;;;;;;;;;;;;;;12.97;94.67;96236.31;5085437;28;19970;-71
2023/05/19 09:31:09;;;;;;;;;;;;;;;12.71;93.45;96230.22;5085872;28;20306;-71
2023/05/19 09:33:36;;;;;;;;;;;;;;;13.05;96.11;96228.03;5083230;28;19977;-71
2023/05/19 09:36:04;;;;;;;;;;;;;;;13.10;89.36;96219.94;5074985;28;19929;-72
2023/05/19 09:38:31;;;;;;;;;;;;;;;13.21;93.17;96222.69;5080601;28;19924;-72
2023/05/19 09:40:58;;;;;;;;;;;;;;;13.28;92.35;96226.56;5085274;28;19928;-73
2023/05/19 09:43:24;;;;;;;;;;;;;;;13.30;90.43;96219.47;5085491;28;19935;-72
2023/05/19 09:45:54;;;;;;;;;;;;;;;13.30;89.18;96220.31;5073470;28;19931;-73
2023/05/19 09:48:22;;;;;;;;;;;;;;;13.40;96.15;96217.13;5082939;28;19928;-73
2023/05/19 09:50:50;;;;;;;;;;;;;;;13.46;91.24;96214.94;5087879;28;20302;-73
2023/05/19 09:53:17;;;;;;;;;;;;;;;13.56;92.80;96215.97;5090437;28;19970;-73
2023/05/19 09:55:43;;;;;;;;;;;;;;;13.49;87.57;96214.72;5085170;28;19954;-73
2023/05/19 09:58:10;;;;;;;;;;;;;;;13.29;89.83;96210.84;5088877;28;19928;-72
2023/05/19 10:00:37;;;;;;;;;;;;;;;13.40;90.26;96204.94;5084111;28;19932;-71
2023/05/19 10:03:04;;;;;;;;;;;;;;;13.51;96.05;96222.44;5089195;28;20014;-74
2023/05/19 10:05:32;;;;;;;;;;;;;;;13.05;84.16;96221.09;5080802;28;19931;-73
2023/05/19 10:07:59;;;;;;;;;;;;;;;13.25;85.81;96222.41;5084783;28;19934;-74
2023/05/19 10:10:27;;;;;;;;;;;;;;;13.34;87.52;96209.72;5080838;28;19978;-74
2023/05/19 10:12:54;;;;;;;;;;;;;;;13.35;90.34;96208.75;5086768;28;19932;-74
2023/05/19 10:15:20;;;;;;;;;;;;;;;13.34;85.37;96212.31;5082906;28;19924;-74
2023/05/19 10:17:46;;;;;;;;;;;;;;;13.08;86.96;96218.25;5082406;28;20398;-74
2023/05/19 10:20:13;;;;;;;;;;;;;;;13.19;88.17;96209.75;5080719;28;20378;-73
2023/05/19 10:22:42;;;;;;;;;;;;;;;13.04;89.39;96221.16;5071068;28;19977;-74
2023/05/19 10:25:09;;;;;;;;;;;;;;;13.03;90.95;96209.09;5074514;28;19928;-75
2023/05/19 10:27:36;;;;;;;;;;;;;;;13.15;94.83;96216.09;5082886;28;19924;-75
2023/05/19 10:30:06;;;;;;;;;;;;;;;13.14;90.14;96217.03;5082856;28;19928;-74
2023/05/19 10:32:32;;;;;;;;;;;;;;;13.03;88.94;96206.50;5077925;28;20295;-75
2023/05/19 10:35:26;;;;;;;;;;;;;;;13.11;89.94;96213.81;5081984;28;19924;-74
2023/05/19 10:37:57;;;;;;;;;;;;;;;13.21;91.31;96202.69;5075410;28;19932;-74
2023/05/19 10:40:27;;;;;;;;;;;;;;;13.24;89.76;96202.53;5076163;28;20619;-75
2023/05/19 10:42:57;;;;;;;;;;;;;;;13.25;89.66;96204.19;5082354;28;19924;-73
2023/05/19 10:45:26;;;;;;;;;;;;;;;13.23;93.43;96208.66;5079968;28;19925;-73
2023/05/19 10:47:54;;;;;;;;;;;;;;;13.31;94.95;96206.38;5079540;28;20294;-73
2023/05/19 10:50:20;;;;;;;;;;;;;;;13.33;86.19;96219.28;5079498;28;19924;-73
2023/05/19 10:52:52;;;;;;;;;;;;;;;13.18;91.31;96210.69;5085380;28;19935;-73
2023/05/19 10:55:40;;;;;;;;;;;;;;;13.21;93.32;96212.28;5089304;28;19931;-73
2023/05/19 10:58:06;;;;;;;;;;;;;;;12.97;93.56;96212.09;5074593;28;20320;-73
2023/05/19 11:00:33;;;;;;;;;;;;;;;13.10;95.22;96204.34;5082912;28;20333;-73
2023/05/19 11:03:12;;;;;;;;;;;;;;;13.21;92.32;96210.50;5080175;28;19924;-73
2023/05/19 11:05:38;;;;;;;;;;;;;;;13.21;91.02;96209.66;5081493;28;19924;-73
2023/05/19 11:08:10;;;;;;;;;;;;;;;13.08;93.32;96218.25;5081699;28;19939;-73
2023/05/19 11:10:38;;;;;;;;;;;;;;;13.03;93.81;96215.13;5080186;28;19989;-73
2023/05/19 11:13:05;;;;;;;;;;;;;;;13.13;93.90;96212.78;5084956;28;19946;-73
2023/05/19 11:15:34;;;;;;;;;;;;;;;12.93;95.19;96211.47;5074514;28;19928;-73
2023/05/19 11:18:01;;;;;;;;;;;;;;;12.99;97.89;96212.84;5085122;28;19962;-73
2023/05/19 11:20:28;;;;;;;;;;;;;;;12.90;92.66;96209.06;5078739;28;19936;-74
2023/05/19 11:23:05;;;;;;;;;;;;;;;12.78;95.99;96210.69;5085413;28;19928;-74
2023/05/19 11:25:46;;;;;;;;;;;;;;;12.81;98.51;96213.09;5083841;28;20007;-73
2023/05/19 11:28:13;;;;;;;;;;;;;;;12.70;95.78;96209.53;5083674;28;20062;-74
2023/05/19 11:30:41;;;;;;;;;;;;;;;12.80;97.94;96206.25;5076092;28;20298;-74
2023/05/19 11:33:07;;;;;;;;;;;;;;;12.78;99.15;96210.69;5081491;28;19928;-78
2023/05/19 11:35:35;;;;;;;;;;;;;;;12.94;95.64;96212.28;5080871;28;20318;-70
2023/05/19 11:38:01;;;;;;;;;;;;;;;13.05;100.00;96204.63;5085334;28;20344;-73
2023/05/19 11:40:28;;;;;;;;;;;;;;;12.93;93.97;96201.06;5081245;27;19954;-73
2023/05/19 11:42:56;;;;;;;;;;;;;;;13.11;97.14;96209.44;5077193;28;19936;-73
2023/05/19 11:45:26;;;;;;;;;;;;;;;13.06;99.74;96206.31;5076910;28;19932;-75
2023/05/19 11:47:55;;;;;;;;;;;;;;;13.13;100.00;96207.56;5074916;28;19928;-72
2023/05/19 11:50:21;;;;;;;;;;;;;;;12.89;92.45;96201.38;5086970;28;19978;-72
2023/05/19 11:52:48;;;;;;;;;;;;;;;13.06;96.87;96207.13;5080497;28;19929;-72
2023/05/19 11:55:15;;;;;;;;;;;;;;;13.15;100.00;96192.69;5082033;28;19974;-72
2023/05/19 11:57:43;;;;;;;;;;;;;;;13.24;99.95;96199.09;5086101;28;19928;-72
2023/05/19 12:00:13;;;;;;;;;;;;;;;13.22;98.63;96196.56;5087146;28;20018;-72
2023/05/19 12:02:40;;;;;;;;;;;;;;;13.14;94.95;96205.81;5079273;28;19924;-72
2023/05/19 12:05:07;;;;;;;;;;;;;;;13.00;91.63;96206.69;5080964;28;19950;-72
2023/05/19 12:07:33;;;;;;;;;;;;;;;13.02;91.08;96199.66;5086725;28;20015;-71
2023/05/19 12:10:00;;;;;;;;;;;;;;;13.22;96.47;96201.75;5087371;28;19930;-72
2023/05/19 12:12:29;;;;;;;;;;;;;;;13.02;93.37;96208.28;5081684;28;19940;-72
2023/05/19 12:14:56;;;;;;;;;;;;;;;12.78;95.12;96205.50;5078395;28;19930;-72
2023/05/19 12:17:24;;;;;;;;;;;;;;;12.86;97.42;96209.38;5085893;28;19928;-72
2023/05/19 12:19:50;;;;;;;;;;;;;;;12.93;99.65;96213.22;5085255;28;19931;-71
2023/05/19 12:22:17;;;;;;;;;;;;;;;12.89;94.26;96211.78;5079710;28;19928;-72
2023/05/19 12:24:44;;;;;;;;;;;;;;;13.04;94.84;96218.56;5078688;28;20271;-71
2023/05/19 12:27:11;;;;;;;;;;;;;;;13.10;94.50;96219.94;5083563;28;19924;-72
2023/05/19 12:29:38;;;;;;;;;;;;;;;13.00;94.36;96215.34;5084658;28;19959;-72
2023/05/19 12:32:04;;;;;;;;;;;;;;;12.95;95.71;96219.19;5082270;28;20402;-71
2023/05/19 12:34:32;;;;;;;;;;;;;;;13.04;98.11;96222.00;5075094;28;19925;-72
2023/05/19 12:36:59;;;;;;;;;;;;;;;13.03;97.19;96225.53;5074568;28;19928;-72
2023/05/19 12:39:25;;;;;;;;;;;;;;;12.95;96.86;96216.59;5067751;28;19951;-74
2023/05/19 12:41:51;;;;;;;;;;;;;;;12.96;93.11;96220.84;5083825;28;19924;-74
2023/05/19 12:44:18;;;;;;;;;;;;;;;12.90;96.65;96216.03;5083386;28;19928;-74
2023/05/19 12:46:44;;;;;;;;;;;;;;;12.84;96.78;96215.50;5078787;28;19931;-74